createdAt,value
2022-08-29T00:01:31.443Z,3.90
2022-08-29T00:03:59.708Z,3.50
2022-08-29T00:06:29.680Z,4.10
2022-08-29T00:08:57.661Z,3.80
2022-08-29T00:11:25.586Z,3.60
2022-08-29T00:13:53.544Z,3.87
2022-08-29T00:16:21.763Z,3.67
2022-08-29T00:18:49.876Z,4.00
2022-08-29T00:21:17.877Z,3.47
2022-08-29T00:23:47.203Z,3.73
2022-08-29T00:26:15.380Z,3.53
2022-08-29T00:28:43.354Z,4.00
2022-08-29T00:31:11.398Z,4.33
2022-08-29T00:33:39.839Z,3.93
2022-08-29T00:36:08.071Z,3.53
2022-08-29T00:38:36.119Z,3.33
2022-08-29T00:41:06.817Z,3.50
2022-08-29T00:43:36.622Z,3.93
2022-08-29T00:46:10.690Z,3.73
2022-08-29T00:48:40.111Z,4.27
2022-08-29T00:51:09.983Z,4.10
2022-08-29T00:53:41.233Z,4.20
2022-08-29T00:56:11.211Z,4.10
2022-08-29T00:58:41.832Z,3.60
2022-08-29T01:01:10.456Z,3.33
2022-08-29T01:03:42.892Z,3.13
2022-08-29T01:06:11.427Z,3.33
2022-08-29T01:08:39.552Z,3.50
2022-08-29T01:11:39.813Z,3.67
2022-08-29T01:14:09.516Z,3.43
2022-08-29T01:16:38.318Z,3.60
2022-08-29T01:19:13.695Z,3.73
2022-08-29T01:21:46.068Z,3.60
2022-08-29T01:24:23.410Z,4.23
2022-08-29T01:26:51.372Z,4.53
2022-08-29T01:29:19.440Z,4.00
2022-08-29T01:31:57.137Z,4.60
2022-08-29T01:34:26.760Z,4.53
2022-08-29T01:36:55.682Z,4.60
2022-08-29T01:39:26.698Z,4.50
2022-08-29T01:41:54.700Z,4.60
2022-08-29T01:44:23.324Z,4.60
2022-08-29T01:46:52.473Z,4.67
2022-08-29T01:49:21.073Z,4.83
2022-08-29T01:51:49.059Z,4.33
2022-08-29T01:54:17.259Z,5.20
2022-08-29T01:56:47.543Z,4.70
2022-08-29T01:59:16.172Z,4.50
2022-08-29T02:01:46.223Z,4.30
2022-08-29T02:04:14.461Z,4.93
2022-08-29T02:06:43.051Z,5.00
2022-08-29T02:09:11.390Z,5.03
2022-08-29T02:11:40.647Z,5.20
2022-08-29T02:14:19.044Z,4.63
2022-08-29T02:16:47.930Z,4.77
2022-08-29T02:19:16.368Z,5.30
2022-08-29T02:21:44.561Z,4.97
2022-08-29T02:24:24.875Z,4.60
2022-08-29T02:26:53.987Z,5.20
2022-08-29T02:29:23.629Z,5.20
2022-08-29T02:31:51.823Z,4.60
2022-08-29T02:34:20.024Z,5.40
2022-08-29T02:36:49.220Z,5.43
2022-08-29T02:39:17.471Z,5.00
2022-08-29T02:41:45.471Z,5.43
2022-08-29T02:44:13.669Z,6.17
2022-08-29T02:46:43.087Z,5.30
2022-08-29T02:49:11.173Z,5.57
2022-08-29T02:51:39.119Z,5.97
2022-08-29T02:54:07.163Z,5.70
2022-08-29T02:56:35.115Z,5.97
2022-08-29T02:59:03.078Z,5.20
2022-08-29T03:01:31.466Z,5.80
2022-08-29T03:04:00.972Z,5.47
2022-08-29T03:06:29.865Z,5.70
2022-08-29T03:08:57.782Z,5.67
2022-08-29T03:11:27.234Z,5.40
2022-08-29T03:13:57.619Z,6.50
2022-08-29T03:16:26.243Z,6.10
2022-08-29T03:18:54.299Z,6.03
2022-08-29T03:21:25.060Z,5.57
2022-08-29T03:23:53.363Z,6.23
2022-08-29T03:26:21.351Z,5.80
2022-08-29T03:28:49.555Z,6.27
2022-08-29T03:31:17.579Z,5.57
2022-08-29T03:33:45.621Z,5.70
2022-08-29T03:36:14.305Z,6.00
2022-08-29T03:38:44.256Z,5.73
2022-08-29T03:41:12.500Z,5.97
2022-08-29T03:43:40.515Z,6.30
2022-08-29T03:46:08.640Z,5.50
2022-08-29T03:48:36.582Z,5.70
2022-08-29T03:51:04.604Z,6.10
2022-08-29T03:53:33.582Z,5.30
2022-08-29T03:56:04.452Z,5.70
2022-08-29T03:58:33.088Z,5.73
2022-08-29T04:01:01.064Z,6.20
2022-08-29T04:03:30.941Z,5.77
2022-08-29T04:05:59.582Z,6.10
2022-08-29T04:08:27.502Z,6.23
2022-08-29T04:10:55.454Z,6.47
2022-08-29T04:13:24.801Z,6.67
2022-08-29T04:15:53.734Z,6.40
2022-08-29T04:18:22.583Z,6.23
2022-08-29T04:20:50.936Z,6.30
2022-08-29T04:23:18.874Z,6.10
2022-08-29T04:25:46.782Z,6.27
2022-08-29T04:28:15.510Z,6.10
2022-08-29T04:30:51.565Z,7.03
2022-08-29T04:33:22.526Z,7.17
2022-08-29T04:35:51.227Z,6.30
2022-08-29T04:38:19.252Z,5.53
2022-08-29T04:40:47.592Z,5.73
2022-08-29T04:43:15.607Z,6.60
2022-08-29T04:45:43.646Z,6.73
2022-08-29T04:48:13.055Z,6.20
2022-08-29T04:50:40.980Z,5.93
2022-08-29T04:53:08.910Z,6.00
2022-08-29T04:55:36.860Z,6.13
2022-08-29T04:58:06.392Z,5.93
2022-08-29T05:00:38.211Z,5.80
2022-08-29T05:03:07.999Z,6.03
2022-08-29T05:05:37.465Z,6.13
2022-08-29T05:08:05.432Z,6.03
2022-08-29T05:10:33.691Z,5.33
2022-08-29T05:13:01.642Z,5.73
2022-08-29T05:15:29.725Z,5.17
2022-08-29T05:17:57.818Z,6.30
2022-08-29T05:20:25.776Z,5.80
2022-08-29T05:22:55.122Z,5.33
2022-08-29T05:25:23.251Z,5.87
2022-08-29T05:27:51.286Z,6.27
2022-08-29T05:30:31.959Z,5.67
2022-08-29T05:33:02.911Z,5.40
2022-08-29T05:35:30.876Z,5.40
2022-08-29T05:38:00.214Z,6.00
2022-08-29T05:40:28.221Z,5.70
2022-08-29T05:42:56.238Z,6.47
2022-08-29T05:45:24.219Z,6.70
2022-08-29T05:47:52.254Z,7.23
2022-08-29T05:50:20.153Z,6.27
2022-08-29T05:52:48.067Z,6.00
2022-08-29T05:55:17.483Z,6.57
2022-08-29T05:57:45.459Z,6.30
2022-08-29T06:00:13.937Z,6.20
2022-08-29T06:02:41.982Z,7.07
2022-08-29T06:05:10.764Z,7.07
2022-08-29T06:07:38.827Z,7.10
2022-08-29T06:10:09.025Z,7.10
2022-08-29T06:12:38.433Z,8.00
2022-08-29T06:15:06.885Z,7.47
2022-08-29T06:17:35.569Z,7.80
2022-08-29T06:20:03.781Z,8.40
2022-08-29T06:22:31.700Z,7.63
2022-08-29T06:24:59.609Z,6.80
2022-08-29T06:27:32.203Z,6.97
2022-08-29T06:30:02.121Z,6.70
2022-08-29T06:32:30.215Z,7.90
2022-08-29T06:34:58.163Z,7.57
2022-08-29T06:37:26.102Z,6.87
2022-08-29T06:39:54.025Z,7.10
2022-08-29T06:42:25.133Z,7.17
2022-08-29T06:44:56.578Z,6.83
2022-08-29T06:47:25.934Z,6.73
2022-08-29T06:49:53.886Z,7.60
2022-08-29T06:52:21.835Z,6.80
2022-08-29T06:54:49.743Z,7.03
2022-08-29T06:57:17.742Z,7.33
2022-08-29T06:59:45.703Z,6.50
2022-08-29T07:02:13.642Z,6.80
2022-08-29T07:04:43.043Z,7.23
2022-08-29T07:07:11.369Z,6.47
2022-08-29T07:09:39.373Z,7.33
2022-08-29T07:12:07.495Z,7.07
2022-08-29T07:14:35.585Z,6.20
2022-08-29T07:17:03.502Z,7.23
2022-08-29T07:19:31.407Z,7.43
2022-08-29T07:22:01.068Z,6.30
2022-08-29T07:24:29.011Z,6.47
2022-08-29T07:26:56.926Z,6.23
2022-08-29T07:29:24.910Z,6.67
2022-08-29T07:31:52.959Z,6.40
2022-08-29T07:34:21.495Z,6.73
2022-08-29T07:36:49.769Z,6.40
2022-08-29T07:39:19.984Z,6.77
2022-08-29T07:41:47.916Z,6.30
2022-08-29T07:44:16.528Z,6.93
2022-08-29T07:46:44.650Z,5.87
2022-08-29T07:49:12.954Z,5.97
2022-08-29T07:51:44.179Z,5.90
2022-08-29T07:54:16.863Z,6.37
2022-08-29T07:56:47.317Z,5.30
2022-08-29T07:59:15.338Z,5.53
2022-08-29T08:01:43.402Z,5.40
2022-08-29T08:04:11.695Z,6.07
2022-08-29T08:06:40.994Z,6.50
2022-08-29T08:09:10.994Z,6.27
2022-08-29T08:11:40.282Z,5.93
2022-08-29T08:14:09.972Z,5.97
2022-08-29T08:16:38.013Z,6.67
2022-08-29T08:19:12.043Z,6.43
2022-08-29T08:21:49.310Z,6.50
2022-08-29T08:24:19.709Z,5.80
2022-08-29T08:26:47.973Z,5.83
2022-08-29T08:29:17.340Z,5.97
2022-08-29T08:31:45.579Z,6.63
2022-08-29T08:34:15.740Z,5.82
2022-08-29T08:36:44.966Z,6.50
2022-08-29T08:39:13.308Z,5.88
2022-08-29T08:41:46.613Z,5.20
2022-08-29T08:44:17.282Z,5.30
2022-08-29T08:46:49.389Z,5.83
2022-08-29T08:49:20.306Z,5.85
2022-08-29T08:51:59.120Z,5.75
2022-08-29T08:54:28.815Z,5.32
2022-08-29T08:57:02.080Z,6.45
2022-08-29T08:59:33.292Z,5.28
2022-08-29T09:02:07.157Z,5.40
2022-08-29T09:04:49.823Z,5.43
2022-08-29T09:07:22.471Z,5.50
2022-08-29T09:10:04.893Z,5.30
2022-08-29T09:12:38.757Z,5.00
2022-08-29T09:15:09.574Z,5.20
2022-08-29T09:17:45.333Z,5.33
2022-08-29T09:20:15.353Z,4.67
2022-08-29T09:22:44.485Z,4.63
2022-08-29T09:25:13.373Z,5.40
2022-08-29T09:27:41.359Z,5.03
2022-08-29T09:30:12.361Z,4.83
2022-08-29T09:32:55.280Z,4.90
2022-08-29T09:35:25.692Z,4.73
2022-08-29T09:37:57.762Z,4.47
2022-08-29T09:40:27.386Z,4.93
2022-08-29T09:43:02.475Z,5.03
2022-08-29T09:45:30.664Z,5.22
2022-08-29T09:48:11.326Z,4.63
2022-08-29T09:50:40.107Z,4.43
2022-08-29T09:53:23.842Z,4.83
2022-08-29T09:55:53.227Z,4.50
2022-08-29T09:58:29.100Z,5.10
2022-08-29T10:01:01.299Z,4.67
2022-08-29T10:03:33.985Z,5.50
2022-08-29T10:06:08.532Z,5.00
2022-08-29T10:08:37.286Z,5.07
2022-08-29T10:11:06.089Z,5.00
2022-08-29T10:13:41.526Z,5.47
2022-08-29T10:16:14.731Z,5.27
2022-08-29T10:18:48.209Z,4.97
2022-08-29T10:21:31.179Z,5.60
2022-08-29T10:24:05.544Z,5.68
2022-08-29T10:26:38.271Z,5.15
2022-08-29T10:29:09.850Z,5.10
2022-08-29T10:31:41.538Z,5.07
2022-08-29T10:34:23.207Z,5.22
2022-08-29T10:36:53.983Z,4.53
2022-08-29T10:39:41.377Z,5.13
2022-08-29T10:42:11.006Z,5.10
2022-08-29T10:44:46.316Z,5.20
2022-08-29T10:47:22.482Z,5.05
2022-08-29T10:49:59.728Z,4.85
2022-08-29T10:52:30.013Z,4.35
2022-08-29T10:55:01.825Z,5.35
2022-08-29T10:57:39.086Z,5.18
2022-08-29T11:00:09.150Z,4.80
2022-08-29T11:02:40.274Z,4.80
2022-08-29T11:05:12.795Z,4.72
2022-08-29T11:07:43.329Z,4.35
2022-08-29T11:10:13.844Z,4.53
2022-08-29T11:12:46.392Z,5.00
2022-08-29T11:15:18.599Z,5.53
2022-08-29T11:17:50.297Z,4.82
2022-08-29T11:20:21.788Z,5.28
2022-08-29T11:22:51.498Z,4.95
2022-08-29T11:25:20.976Z,4.40
2022-08-29T11:27:54.179Z,5.10
2022-08-29T11:30:24.091Z,4.63
2022-08-29T11:32:57.567Z,4.80
2022-08-29T11:35:29.286Z,4.55
2022-08-29T11:38:15.636Z,4.25
2022-08-29T11:40:48.734Z,4.88
2022-08-29T11:43:38.308Z,4.57
2022-08-29T11:46:08.216Z,4.30
2022-08-29T11:48:38.917Z,4.20
2022-08-29T11:51:21.640Z,4.30
2022-08-29T11:53:51.138Z,4.30
2022-08-29T11:56:27.747Z,4.22
2022-08-29T11:58:56.940Z,4.05
2022-08-29T12:01:46.034Z,4.25
2022-08-29T12:04:34.040Z,3.95
2022-08-29T12:07:04.416Z,4.15
2022-08-29T12:09:41.129Z,4.13
2022-08-29T12:12:13.915Z,4.20
2022-08-29T12:14:43.126Z,3.72
2022-08-29T12:17:12.512Z,4.00
2022-08-29T12:19:48.380Z,3.97
2022-08-29T12:22:34.775Z,3.80
2022-08-29T12:25:23.973Z,8.15
2022-08-29T12:28:07.228Z,22.55
2022-08-29T12:30:39.068Z,4.68
2022-08-29T12:33:15.012Z,4.07
2022-08-29T12:36:00.983Z,3.55
2022-08-29T12:38:32.828Z,3.55
2022-08-29T12:41:13.277Z,3.67
2022-08-29T12:43:42.973Z,3.45
2022-08-29T12:46:14.167Z,2.70
2022-08-29T12:48:43.800Z,3.47
2022-08-29T12:51:38.096Z,3.40
2022-08-29T12:54:06.656Z,3.33
2022-08-29T12:56:36.201Z,3.03
2022-08-29T12:59:05.805Z,3.00
2022-08-29T13:01:38.054Z,2.88
2022-08-29T13:04:07.876Z,2.80
2022-08-29T13:06:35.787Z,4.10
2022-08-29T13:09:05.116Z,2.55
2022-08-29T13:11:34.091Z,3.10
2022-08-29T13:14:07.600Z,3.35
2022-08-29T13:16:35.560Z,3.08
2022-08-29T13:19:11.784Z,3.15
2022-08-29T13:21:39.947Z,3.38
2022-08-29T13:24:12.065Z,3.22
2022-08-29T13:26:42.447Z,3.38
2022-08-29T13:29:26.252Z,2.78
2022-08-29T13:32:09.040Z,2.97
2022-08-29T13:34:37.072Z,2.80
2022-08-29T13:37:08.349Z,2.83
2022-08-29T13:39:44.820Z,2.47
2022-08-29T13:42:23.470Z,2.70
2022-08-29T13:45:00.247Z,2.25
2022-08-29T13:47:30.590Z,2.70
2022-08-29T13:49:59.096Z,2.45
2022-08-29T13:52:31.562Z,2.60
2022-08-29T13:55:00.098Z,3.00
2022-08-29T13:57:29.435Z,2.30
2022-08-29T13:59:58.938Z,2.38
2022-08-29T14:02:28.626Z,2.63
2022-08-29T14:04:56.808Z,2.17
2022-08-29T14:07:26.449Z,2.00
2022-08-29T14:09:55.143Z,2.22
2022-08-29T14:12:33.062Z,2.22
2022-08-29T14:15:08.751Z,2.60
2022-08-29T14:17:37.836Z,2.40
2022-08-29T14:20:07.823Z,2.15
2022-08-29T14:22:35.816Z,2.05
2022-08-29T14:25:03.903Z,2.10
2022-08-29T14:27:31.873Z,2.28
2022-08-29T14:29:59.880Z,1.95
2022-08-29T14:32:29.244Z,2.38
2022-08-29T14:34:57.227Z,2.20
2022-08-29T14:37:25.192Z,2.20
2022-08-29T14:39:53.367Z,2.25
2022-08-29T14:42:21.395Z,2.17
2022-08-29T14:44:49.416Z,2.20
2022-08-29T14:47:17.523Z,2.70
2022-08-29T14:49:46.917Z,3.30
2022-08-29T14:52:15.329Z,2.65
2022-08-29T14:54:43.905Z,2.50
2022-08-29T14:57:12.331Z,2.55
2022-08-29T14:59:40.895Z,2.20
2022-08-29T15:02:10.152Z,3.17
2022-08-29T15:04:38.254Z,2.80
2022-08-29T15:07:08.349Z,2.70
2022-08-29T15:09:36.381Z,2.47
2022-08-29T15:12:04.803Z,3.10
2022-08-29T15:14:34.736Z,2.60
2022-08-29T15:17:02.896Z,2.70
2022-08-29T15:20:17.833Z,2.80
2022-08-29T15:22:20.603Z,2.38
2022-08-29T15:24:50.350Z,3.22
2022-08-29T15:27:18.316Z,2.63
2022-08-29T15:29:46.269Z,2.33
2022-08-29T15:32:14.644Z,2.30
2022-08-29T15:34:42.763Z,2.65
2022-08-29T15:37:11.640Z,2.40
2022-08-29T15:39:41.620Z,2.95
2022-08-29T15:42:11.251Z,2.65
2022-08-29T15:44:39.620Z,2.75
2022-08-29T15:47:10.510Z,2.50
2022-08-29T15:49:39.725Z,2.42
2022-08-29T15:52:07.849Z,2.75
2022-08-29T15:54:36.176Z,3.03
2022-08-29T15:57:05.884Z,2.72
2022-08-29T15:59:56.520Z,2.90
2022-08-29T16:02:22.208Z,3.15
2022-08-29T16:04:53.671Z,3.13
2022-08-29T16:07:29.317Z,4.10
2022-08-29T16:09:59.786Z,3.22
2022-08-29T16:12:30.953Z,3.40
2022-08-29T16:15:00.806Z,3.08
2022-08-29T16:17:31.199Z,3.42
2022-08-29T16:19:59.632Z,3.22
2022-08-29T16:22:28.695Z,2.90
2022-08-29T16:24:56.713Z,2.58
2022-08-29T16:27:24.848Z,2.72
2022-08-29T16:29:55.061Z,3.03
2022-08-29T16:32:23.023Z,2.90
2022-08-29T16:34:51.036Z,2.90
2022-08-29T16:37:19.094Z,2.95
2022-08-29T16:39:47.106Z,3.17
2022-08-29T16:42:15.076Z,3.00
2022-08-29T16:44:43.007Z,2.80
2022-08-29T16:47:12.457Z,2.85
2022-08-29T16:49:40.391Z,3.13
2022-08-29T16:52:08.484Z,3.10
2022-08-29T16:54:36.409Z,3.03
2022-08-29T16:57:04.496Z,2.78
2022-08-29T16:59:37.242Z,3.00
2022-08-29T17:02:05.773Z,2.80
2022-08-29T17:04:35.462Z,2.97
2022-08-29T17:07:03.398Z,2.95
2022-08-29T17:09:30.450Z,2.40
2022-08-29T17:11:57.205Z,2.55
2022-08-29T17:14:25.966Z,2.50
2022-08-29T17:16:54.671Z,2.53
2022-08-29T17:19:23.071Z,2.65
2022-08-29T17:21:52.658Z,2.78
2022-08-29T17:24:20.946Z,3.00
2022-08-29T17:26:49.204Z,2.35
2022-08-29T17:29:17.357Z,2.70
2022-08-29T17:31:45.639Z,3.08
2022-08-29T17:34:13.584Z,2.78
2022-08-29T17:36:43.651Z,3.03
2022-08-29T17:39:13.534Z,3.45
2022-08-29T17:41:41.708Z,3.20
2022-08-29T17:44:12.403Z,3.75
2022-08-29T17:46:40.330Z,4.28
2022-08-29T17:49:10.485Z,3.85
2022-08-29T17:51:39.280Z,4.00
2022-08-29T17:54:12.418Z,4.82
2022-08-29T17:56:44.988Z,7.15
2022-08-29T17:59:13.034Z,5.03
2022-08-29T18:01:41.146Z,4.65
2022-08-29T18:04:09.307Z,4.90
2022-08-29T18:06:37.324Z,4.63
2022-08-29T18:09:05.645Z,5.82
2022-08-29T18:11:33.720Z,4.72
2022-08-29T18:14:03.108Z,4.63
2022-08-29T18:16:31.077Z,5.18
2022-08-29T18:18:59.312Z,5.78
2022-08-29T18:21:28.093Z,5.95
2022-08-29T18:23:56.205Z,5.10
2022-08-29T18:26:24.515Z,5.03
2022-08-29T18:28:52.457Z,5.75
2022-08-29T18:31:21.958Z,4.53
2022-08-29T18:34:04.914Z,4.70
2022-08-29T18:36:33.747Z,4.70
2022-08-29T18:39:02.837Z,4.57
2022-08-29T18:41:31.505Z,4.65
2022-08-29T18:43:59.740Z,5.18
2022-08-29T18:46:30.277Z,5.68
2022-08-29T18:48:58.256Z,4.53
2022-08-29T18:51:26.263Z,4.93
2022-08-29T18:53:55.507Z,4.25
2022-08-29T18:56:23.508Z,4.75
2022-08-29T18:58:54.640Z,4.60
2022-08-29T19:01:28.540Z,4.50
2022-08-29T19:03:59.101Z,4.57
2022-08-29T19:06:27.498Z,4.70
2022-08-29T19:08:55.514Z,3.85
2022-08-29T19:11:23.490Z,4.22
2022-08-29T19:13:52.472Z,4.40
2022-08-29T19:16:21.779Z,4.70
2022-08-29T19:18:49.842Z,4.18
2022-08-29T19:21:18.923Z,4.85
2022-08-29T19:23:52.104Z,4.22
2022-08-29T19:26:22.131Z,4.80
2022-08-29T19:28:52.081Z,4.72
2022-08-29T19:31:22.873Z,3.72
2022-08-29T19:33:51.246Z,4.00
2022-08-29T19:36:20.892Z,4.70
2022-08-29T19:38:48.866Z,4.38
2022-08-29T19:41:17.086Z,4.97
2022-08-29T19:43:45.532Z,5.00
2022-08-29T19:46:16.606Z,4.22
2022-08-29T19:48:51.510Z,4.80
2022-08-29T19:51:24.450Z,4.70
2022-08-29T19:53:53.276Z,5.00
2022-08-29T19:56:21.418Z,5.13
2022-08-29T19:58:49.638Z,4.30
2022-08-29T20:01:18.388Z,4.25
2022-08-29T20:03:46.404Z,4.47
2022-08-29T20:06:14.372Z,4.20
2022-08-29T20:08:45.598Z,4.25
2022-08-29T20:11:14.735Z,3.90
2022-08-29T20:13:50.086Z,4.00
2022-08-29T20:16:19.890Z,4.25
2022-08-29T20:18:50.362Z,3.55
2022-08-29T20:21:19.237Z,3.70
2022-08-29T20:23:50.911Z,3.83
2022-08-29T20:26:21.591Z,4.32
2022-08-29T20:28:50.028Z,4.25
2022-08-29T20:31:19.052Z,3.75
2022-08-29T20:33:47.637Z,4.13
2022-08-29T20:36:33.564Z,4.32
2022-08-29T20:39:08.099Z,4.03
2022-08-29T20:41:36.137Z,4.40
2022-08-29T20:44:07.674Z,4.10
2022-08-29T20:46:39.735Z,4.22
2022-08-29T20:49:07.817Z,3.60
2022-08-29T20:51:36.425Z,3.67
2022-08-29T20:54:04.532Z,4.20
2022-08-29T20:56:33.984Z,3.67
2022-08-29T20:59:01.991Z,3.70
2022-08-29T21:01:30.005Z,3.92
2022-08-29T21:04:15.227Z,4.20
2022-08-29T21:06:49.107Z,3.85
2022-08-29T21:09:17.046Z,3.35
2022-08-29T21:11:46.381Z,3.60
2022-08-29T21:14:14.372Z,3.55
2022-08-29T21:16:42.363Z,3.97
2022-08-29T21:19:10.339Z,3.40
2022-08-29T21:21:38.673Z,4.30
2022-08-29T21:24:07.359Z,3.63
2022-08-29T21:26:35.766Z,4.15
2022-08-29T21:29:05.819Z,3.97
2022-08-29T21:31:34.248Z,3.90
2022-08-29T21:34:06.410Z,3.65
2022-08-29T21:36:36.172Z,3.58
2022-08-29T21:39:05.620Z,4.05
2022-08-29T21:41:34.734Z,3.67
2022-08-29T21:44:02.707Z,3.85
2022-08-29T21:46:34.083Z,3.90
2022-08-29T21:49:05.135Z,3.40
2022-08-29T21:51:34.669Z,3.50
2022-08-29T21:54:03.079Z,3.45
2022-08-29T21:56:31.934Z,3.78
2022-08-29T21:59:00.257Z,3.30
2022-08-29T22:01:30.069Z,4.05
2022-08-29T22:04:00.173Z,3.53
2022-08-29T22:06:28.449Z,3.35
2022-08-29T22:08:56.470Z,3.80
2022-08-29T22:11:25.110Z,3.65
2022-08-29T22:14:05.274Z,3.30
2022-08-29T22:16:32.356Z,3.30
2022-08-29T22:19:03.152Z,3.45
2022-08-29T22:21:31.882Z,3.20
2022-08-29T22:23:59.926Z,2.92
2022-08-29T22:26:28.137Z,3.10
2022-08-29T22:28:56.275Z,2.65
2022-08-29T22:31:24.555Z,3.08
2022-08-29T22:33:52.811Z,3.17
2022-08-29T22:36:22.344Z,2.90
2022-08-29T22:38:55.447Z,2.60
2022-08-29T22:41:24.897Z,2.95
2022-08-29T22:44:16.504Z,2.83
2022-08-29T22:46:42.927Z,2.65
2022-08-29T22:49:11.231Z,3.05
2022-08-29T22:51:40.662Z,2.30
2022-08-29T22:54:25.895Z,2.50
2022-08-29T22:56:54.415Z,2.47
2022-08-29T22:59:22.988Z,2.45
2022-08-29T23:01:51.071Z,2.53
2022-08-29T23:04:19.306Z,2.40
2022-08-29T23:06:48.696Z,2.10
2022-08-29T23:09:16.929Z,2.15
2022-08-29T23:11:44.931Z,2.10
2022-08-29T23:14:12.871Z,1.90
2022-08-29T23:16:41.229Z,2.30
2022-08-29T23:19:09.474Z,1.92
2022-08-29T23:21:38.745Z,2.00
2022-08-29T23:24:09.915Z,1.90
2022-08-29T23:26:37.878Z,1.70
2022-08-29T23:29:05.876Z,1.98
2022-08-29T23:31:33.872Z,1.80
2022-08-29T23:34:01.818Z,1.73
2022-08-29T23:36:29.784Z,1.83
2022-08-29T23:38:57.767Z,1.67
2022-08-29T23:41:27.345Z,1.73
2022-08-29T23:43:55.305Z,1.80
2022-08-29T23:46:23.645Z,1.60
2022-08-29T23:48:51.646Z,2.00
2022-08-29T23:51:19.563Z,1.90
2022-08-29T23:53:47.676Z,1.70
2022-08-29T23:56:17.291Z,1.90
2022-08-29T23:58:46.666Z,1.80
